createdAt,value
2023-07-05T00:00:08.637Z,13.97
2023-07-05T00:01:50.222Z,14.07
2023-07-05T00:03:30.901Z,14.12
2023-07-05T00:05:05.815Z,14.00
2023-07-05T00:07:00.054Z,13.80
2023-07-05T00:09:01.942Z,13.34
2023-07-05T00:11:02.568Z,14.06
2023-07-05T00:13:04.493Z,14.39
2023-07-05T00:15:06.275Z,13.80
2023-07-05T00:17:07.363Z,14.33
2023-07-05T00:19:09.020Z,13.79
2023-07-05T00:20:58.036Z,13.62
2023-07-05T00:22:59.762Z,13.81
2023-07-05T00:25:01.616Z,14.17
2023-07-05T00:27:03.130Z,14.19
2023-07-05T00:29:05.242Z,14.34
2023-07-05T00:30:59.288Z,13.99
2023-07-05T00:32:37.523Z,14.17
2023-07-05T00:34:22.447Z,13.47
2023-07-05T00:36:24.782Z,14.24
2023-07-05T00:38:26.761Z,14.14
2023-07-05T00:40:21.369Z,13.62
2023-07-05T00:42:23.536Z,14.56
2023-07-05T00:44:25.577Z,14.93
2023-07-05T00:45:59.530Z,14.18
2023-07-05T00:48:01.771Z,14.23
2023-07-05T00:49:56.053Z,14.04
2023-07-05T00:51:57.694Z,14.21
2023-07-05T00:53:59.407Z,14.38
2023-07-05T00:56:01.377Z,14.38
2023-07-05T00:58:03.108Z,14.54
2023-07-05T00:59:58.952Z,15.30
2023-07-05T01:02:03.422Z,14.86
2023-07-05T01:04:05.704Z,15.38
2023-07-05T01:06:07.666Z,15.02
2023-07-05T01:07:59.357Z,14.94
2023-07-05T01:10:01.153Z,15.87
2023-07-05T01:11:55.481Z,14.96
2023-07-05T01:13:56.150Z,14.39
2023-07-05T01:15:54.640Z,15.07
2023-07-05T01:17:56.739Z,15.01
2023-07-05T01:19:52.183Z,15.19
2023-07-05T01:21:44.224Z,14.14
2023-07-05T01:23:44.726Z,15.29
2023-07-05T01:25:46.315Z,14.51
2023-07-05T01:27:41.686Z,14.66
2023-07-05T01:29:43.691Z,14.27
2023-07-05T01:31:45.212Z,14.29
2023-07-05T01:33:46.896Z,13.92
2023-07-05T01:35:46.829Z,14.40
2023-07-05T01:37:37.862Z,13.58
2023-07-05T01:39:39.533Z,14.52
2023-07-05T01:41:23.219Z,13.24
2023-07-05T01:43:15.787Z,14.36
2023-07-05T01:45:02.196Z,14.36
2023-07-05T01:46:57.328Z,14.18
2023-07-05T01:48:58.934Z,13.98
2023-07-05T01:50:41.620Z,14.10
2023-07-05T01:52:43.296Z,14.44
2023-07-05T01:54:38.301Z,14.18
2023-07-05T01:56:32.948Z,14.10
2023-07-05T01:58:34.632Z,14.11
2023-07-05T02:00:19.114Z,14.14
2023-07-05T02:02:21.074Z,13.74
2023-07-05T02:04:23.075Z,13.06
2023-07-05T02:06:24.795Z,13.60
2023-07-05T02:08:18.650Z,12.96
2023-07-05T02:10:20.724Z,13.33
2023-07-05T02:12:21.908Z,11.90
2023-07-05T02:14:13.902Z,12.22
2023-07-05T02:15:58.303Z,12.24
2023-07-05T02:18:00.245Z,12.64
2023-07-05T02:19:56.299Z,12.40
2023-07-05T02:21:47.113Z,12.29
2023-07-05T02:23:42.883Z,12.31
2023-07-05T02:25:44.462Z,11.74
2023-07-05T02:27:46.467Z,12.15
2023-07-05T02:29:43.733Z,11.12
2023-07-05T02:31:45.836Z,11.99
2023-07-05T02:33:46.780Z,11.83
2023-07-05T02:35:48.150Z,11.52
2023-07-05T02:37:41.001Z,11.85
2023-07-05T02:39:22.167Z,11.15
2023-07-05T02:41:23.846Z,11.31
2023-07-05T02:43:05.000Z,11.71
2023-07-05T02:44:59.954Z,11.46
2023-07-05T02:46:55.587Z,11.27
2023-07-05T02:48:40.606Z,11.34
2023-07-05T02:50:35.206Z,10.74
2023-07-05T02:52:25.814Z,11.97
2023-07-05T02:54:20.437Z,11.75
2023-07-05T02:56:11.294Z,11.59
2023-07-05T02:57:59.400Z,11.08
2023-07-05T02:59:52.279Z,11.37
2023-07-05T03:01:46.774Z,11.41
2023-07-05T03:03:31.207Z,11.54
2023-07-05T03:05:26.599Z,11.16
2023-07-05T03:07:28.549Z,11.25
2023-07-05T03:09:11.941Z,11.38
2023-07-05T03:11:13.759Z,11.33
2023-07-05T03:13:15.603Z,11.51
2023-07-05T03:15:17.344Z,12.07
2023-07-05T03:17:10.331Z,11.99
2023-07-05T03:18:48.665Z,11.52
2023-07-05T03:20:50.237Z,12.36
2023-07-05T03:22:36.942Z,12.21
2023-07-05T03:24:33.673Z,12.17
2023-07-05T03:26:27.929Z,11.84
2023-07-05T03:28:29.335Z,12.50
2023-07-05T03:30:12.249Z,12.30
2023-07-05T03:32:00.104Z,11.81
2023-07-05T03:33:55.924Z,12.72
2023-07-05T03:35:46.827Z,13.39
2023-07-05T03:37:45.507Z,12.81
2023-07-05T03:39:47.247Z,12.77
2023-07-05T03:41:34.322Z,12.66
2023-07-05T03:43:36.355Z,13.20
2023-07-05T03:45:28.149Z,12.55
2023-07-05T03:47:30.145Z,12.83
2023-07-05T03:49:31.644Z,12.43
2023-07-05T03:51:26.385Z,13.04
2023-07-05T03:53:28.514Z,12.27
2023-07-05T03:55:30.625Z,12.88
2023-07-05T03:57:12.007Z,12.76
2023-07-05T03:59:07.332Z,12.69
2023-07-05T04:01:09.376Z,12.44
2023-07-05T04:03:10.997Z,12.40
2023-07-05T04:05:13.037Z,12.89
2023-07-05T04:07:04.612Z,12.97
2023-07-05T04:09:06.413Z,13.49
2023-07-05T04:11:06.866Z,13.10
2023-07-05T04:13:03.030Z,13.19
2023-07-05T04:14:57.274Z,12.63
2023-07-05T04:16:58.807Z,13.28
2023-07-05T04:18:50.685Z,12.75
2023-07-05T04:20:52.874Z,12.78
2023-07-05T04:22:43.492Z,12.89
2023-07-05T04:24:27.263Z,13.08
2023-07-05T04:26:21.856Z,13.88
2023-07-05T04:28:23.979Z,13.18
2023-07-05T04:30:14.500Z,13.56
2023-07-05T04:32:10.189Z,13.43
2023-07-05T04:33:51.064Z,13.13
2023-07-05T04:35:47.600Z,13.35
2023-07-05T04:37:49.537Z,13.13
2023-07-05T04:39:44.967Z,13.28
2023-07-05T04:41:47.309Z,13.34
2023-07-05T04:43:48.960Z,13.36
2023-07-05T04:45:50.585Z,13.74
2023-07-05T04:47:52.730Z,13.27
2023-07-05T04:49:45.290Z,13.71
2023-07-05T04:51:41.907Z,12.97
2023-07-05T04:53:33.059Z,14.08
2023-07-05T04:55:34.846Z,13.13
2023-07-05T04:57:36.550Z,12.72
2023-07-05T04:59:30.496Z,12.36
2023-07-05T05:01:32.614Z,13.57
2023-07-05T05:03:34.923Z,12.94
2023-07-05T05:05:36.230Z,12.52
2023-07-05T05:07:36.553Z,12.32
2023-07-05T05:09:26.008Z,12.23
2023-07-05T05:11:20.271Z,12.53
2023-07-05T05:13:09.129Z,11.84
2023-07-05T05:15:10.589Z,11.14
2023-07-05T05:16:54.135Z,11.74
2023-07-05T05:18:39.603Z,11.12
2023-07-05T05:20:31.623Z,11.02
2023-07-05T05:22:33.041Z,11.48
2023-07-05T05:24:34.820Z,10.86
2023-07-05T05:26:36.332Z,11.52
2023-07-05T05:28:38.162Z,11.18
2023-07-05T05:30:29.643Z,10.89
2023-07-05T05:32:24.024Z,11.52
2023-07-05T05:34:25.728Z,10.71
2023-07-05T05:36:27.285Z,10.99
2023-07-05T05:38:29.250Z,10.88
2023-07-05T05:40:24.980Z,11.38
2023-07-05T05:42:27.130Z,11.24
2023-07-05T05:44:28.834Z,11.70
2023-07-05T05:46:30.887Z,11.25
2023-07-05T05:48:32.969Z,12.32
2023-07-05T05:50:34.419Z,11.97
2023-07-05T05:52:29.992Z,11.81
2023-07-05T05:54:31.746Z,11.69
2023-07-05T05:56:33.303Z,12.25
2023-07-05T05:58:35.101Z,12.17
2023-07-05T06:00:36.849Z,11.70
2023-07-05T06:02:38.350Z,11.96
2023-07-05T06:04:40.309Z,12.75
2023-07-05T06:06:42.143Z,11.20
2023-07-05T06:08:43.924Z,12.52
2023-07-05T06:10:44.624Z,11.84
2023-07-05T06:12:37.157Z,11.97
2023-07-05T06:14:38.484Z,12.56
2023-07-05T06:16:38.598Z,11.58
2023-07-05T06:18:40.335Z,12.11
2023-07-05T06:20:42.340Z,12.25
2023-07-05T06:22:44.159Z,12.16
2023-07-05T06:24:45.616Z,12.81
2023-07-05T06:26:46.434Z,12.29
2023-07-05T06:28:47.824Z,12.79
2023-07-05T06:30:49.687Z,12.57
2023-07-05T06:32:51.316Z,12.60
2023-07-05T06:34:42.872Z,13.40
2023-07-05T06:36:44.590Z,12.92
2023-07-05T06:38:44.781Z,12.35
2023-07-05T06:40:46.356Z,12.90
2023-07-05T06:42:48.277Z,12.80
2023-07-05T06:44:45.137Z,12.52
2023-07-05T06:46:39.668Z,13.14
2023-07-05T06:48:36.671Z,12.92
2023-07-05T06:50:36.940Z,12.92
2023-07-05T06:52:31.155Z,12.26
2023-07-05T06:54:31.615Z,12.14
2023-07-05T06:56:33.778Z,12.82
2023-07-05T06:58:35.255Z,12.22
2023-07-05T07:00:35.556Z,12.24
2023-07-05T07:02:37.096Z,12.28
2023-07-05T07:04:38.769Z,12.94
2023-07-05T07:06:40.508Z,12.45
2023-07-05T07:08:41.881Z,12.39
2023-07-05T07:10:43.978Z,12.32
2023-07-05T07:12:45.670Z,13.13
2023-07-05T07:14:47.287Z,12.68
2023-07-05T07:16:48.088Z,12.59
2023-07-05T07:18:50.061Z,13.04
2023-07-05T07:20:51.827Z,12.11
2023-07-05T07:22:52.681Z,12.39
2023-07-05T07:24:54.091Z,12.82
2023-07-05T07:26:48.617Z,12.08
2023-07-05T07:28:50.238Z,12.23
2023-07-05T07:30:51.875Z,12.87
2023-07-05T07:32:44.788Z,12.64
2023-07-05T07:34:39.223Z,12.83
2023-07-05T07:36:40.845Z,12.31
2023-07-05T07:38:40.954Z,12.76
2023-07-05T07:40:42.801Z,13.33
2023-07-05T07:42:44.543Z,13.10
2023-07-05T07:44:46.247Z,13.31
2023-07-05T07:46:47.725Z,13.10
2023-07-05T07:48:42.295Z,13.06
2023-07-05T07:50:44.112Z,13.64
2023-07-05T07:52:45.925Z,13.32
2023-07-05T07:54:47.799Z,13.43
2023-07-05T07:56:49.698Z,13.62
2023-07-05T07:58:51.437Z,13.70
2023-07-05T08:00:46.033Z,13.52
2023-07-05T08:02:47.779Z,14.06
2023-07-05T08:04:49.280Z,13.10
2023-07-05T08:06:38.297Z,13.69
2023-07-05T08:08:39.704Z,13.33
2023-07-05T08:10:41.176Z,13.48
2023-07-05T08:12:41.424Z,13.79
2023-07-05T08:14:43.121Z,13.84
2023-07-05T08:16:43.586Z,13.80
2023-07-05T08:18:45.483Z,13.86
2023-07-05T08:20:47.214Z,14.26
2023-07-05T08:22:41.076Z,13.39
2023-07-05T08:24:42.722Z,14.19
2023-07-05T08:26:34.167Z,14.08
2023-07-05T08:28:35.865Z,13.26
2023-07-05T08:30:37.302Z,12.95
2023-07-05T08:32:39.232Z,13.62
2023-07-05T08:34:41.238Z,13.95
2023-07-05T08:36:25.295Z,13.53
2023-07-05T08:38:27.209Z,13.74
2023-07-05T08:40:29.318Z,13.98
2023-07-05T08:42:30.823Z,13.13
2023-07-05T08:44:32.478Z,14.27
2023-07-05T08:46:34.487Z,13.79
2023-07-05T08:48:36.258Z,12.13
2023-07-05T08:50:39.982Z,12.88
2023-07-05T08:52:41.281Z,13.21
2023-07-05T08:54:42.828Z,12.72
2023-07-05T08:56:34.213Z,11.77
2023-07-05T08:58:28.801Z,10.65
2023-07-05T09:00:23.727Z,10.31
2023-07-05T09:02:22.070Z,11.18
2023-07-05T09:04:06.560Z,11.72
2023-07-05T09:06:08.287Z,13.03
2023-07-05T09:08:01.232Z,11.52
2023-07-05T09:09:56.461Z,11.99
2023-07-05T09:11:34.712Z,12.59
2023-07-05T09:13:36.788Z,11.33
2023-07-05T09:15:38.489Z,10.98
2023-07-05T09:17:32.736Z,11.14
2023-07-05T09:19:28.400Z,11.07
2023-07-05T09:21:30.422Z,10.84
2023-07-05T09:23:32.083Z,11.77
2023-07-05T09:25:26.589Z,10.32
2023-07-05T09:27:32.245Z,10.78
2023-07-05T09:29:18.555Z,10.66
2023-07-05T09:31:08.850Z,9.48
2023-07-05T09:33:02.191Z,10.37
2023-07-05T09:34:52.819Z,10.93
2023-07-05T09:36:54.433Z,11.11
2023-07-05T09:38:38.626Z,9.78
2023-07-05T09:40:39.986Z,9.44
2023-07-05T09:42:24.015Z,9.75
2023-07-05T09:44:26.375Z,10.23
2023-07-05T09:46:01.650Z,9.42
2023-07-05T09:47:46.462Z,9.62
2023-07-05T09:49:32.910Z,9.03
2023-07-05T09:51:17.137Z,8.90
2023-07-05T09:53:12.541Z,8.91
2023-07-05T09:55:08.022Z,8.63
2023-07-05T09:56:52.293Z,8.66
2023-07-05T09:58:46.763Z,9.02
2023-07-05T10:00:30.356Z,9.40
2023-07-05T10:02:32.201Z,8.99
2023-07-05T10:04:34.321Z,9.40
2023-07-05T10:06:36.242Z,8.68
2023-07-05T10:08:17.696Z,8.35
2023-07-05T10:10:19.460Z,8.69
2023-07-05T10:12:01.062Z,8.80
2023-07-05T10:13:42.360Z,9.30
2023-07-05T10:15:35.866Z,8.81
2023-07-05T10:17:16.338Z,8.52
2023-07-05T10:19:39.315Z,8.63
2023-07-05T10:21:14.838Z,8.95
2023-07-05T10:22:47.987Z,7.92
2023-07-05T10:24:28.741Z,7.76
2023-07-05T10:26:02.094Z,7.96
2023-07-05T10:27:42.441Z,7.40
2023-07-05T10:29:27.274Z,7.71
2023-07-05T10:30:49.370Z,7.84
2023-07-05T10:32:30.297Z,8.46
2023-07-05T10:34:14.487Z,7.66
2023-07-05T10:35:47.686Z,7.34
2023-07-05T10:37:16.987Z,7.56
2023-07-05T10:38:46.411Z,8.17
2023-07-05T10:40:19.514Z,7.46
2023-07-05T10:41:52.986Z,7.80
2023-07-05T10:43:28.232Z,7.47
2023-07-05T10:45:12.819Z,7.31
2023-07-05T10:46:53.109Z,7.62
2023-07-05T10:48:19.373Z,7.28
2023-07-05T10:50:12.806Z,7.16
2023-07-05T10:51:42.146Z,7.45
2023-07-05T10:53:07.917Z,7.45
2023-07-05T10:54:41.590Z,7.28
2023-07-05T10:56:18.360Z,6.59
2023-07-05T10:57:40.125Z,6.96
2023-07-05T10:59:14.835Z,7.08
2023-07-05T11:00:50.761Z,6.99
2023-07-05T11:02:44.135Z,6.77
2023-07-05T11:04:18.603Z,6.53
2023-07-05T11:05:59.449Z,6.56
2023-07-05T11:07:32.833Z,6.72
2023-07-05T11:09:09.289Z,6.92
2023-07-05T11:10:43.372Z,7.11
2023-07-05T11:12:22.283Z,6.58
2023-07-05T11:13:55.393Z,5.92
2023-07-05T11:15:35.745Z,6.38
2023-07-05T11:17:29.722Z,5.87
2023-07-05T11:19:13.388Z,6.21
2023-07-05T11:20:49.135Z,5.75
2023-07-05T11:22:33.941Z,5.57
2023-07-05T11:24:07.300Z,5.29
2023-07-05T11:25:33.419Z,5.48
2023-07-05T11:27:23.652Z,5.90
2023-07-05T11:28:56.544Z,5.67
2023-07-05T11:30:30.002Z,5.28
2023-07-05T11:32:15.106Z,4.97
2023-07-05T11:33:51.263Z,5.31
2023-07-05T11:35:24.743Z,4.87
2023-07-05T11:36:59.388Z,5.33
2023-07-05T11:38:44.374Z,5.46
2023-07-05T11:40:20.131Z,5.33
2023-07-05T11:41:41.987Z,4.73
2023-07-05T11:43:23.498Z,4.97
2023-07-05T11:44:59.363Z,4.95
2023-07-05T11:46:30.244Z,4.59
2023-07-05T11:48:23.556Z,5.11
2023-07-05T11:49:45.577Z,5.27
2023-07-05T11:51:36.812Z,5.09
2023-07-05T11:53:14.653Z,4.94
2023-07-05T11:54:50.428Z,4.84
2023-07-05T11:56:23.477Z,4.90
2023-07-05T11:57:47.532Z,4.87
2023-07-05T11:59:22.763Z,5.05
2023-07-05T12:01:07.432Z,5.05
2023-07-05T12:02:31.622Z,5.09
2023-07-05T12:04:16.300Z,4.42
2023-07-05T12:06:01.278Z,4.96
2023-07-05T12:07:45.637Z,5.03
2023-07-05T12:09:15.108Z,5.02
2023-07-05T12:10:56.019Z,4.95
2023-07-05T12:12:35.381Z,5.29
2023-07-05T12:14:18.484Z,4.83
2023-07-05T12:15:55.040Z,5.85
2023-07-05T12:17:31.016Z,5.14
2023-07-05T12:19:17.218Z,5.13
2023-07-05T12:20:48.067Z,4.90
2023-07-05T12:22:36.961Z,5.15
2023-07-05T12:24:01.357Z,4.79
2023-07-05T12:25:46.211Z,5.40
2023-07-05T12:27:22.005Z,5.29
2023-07-05T12:29:12.584Z,4.83
2023-07-05T12:30:34.590Z,5.13
2023-07-05T12:32:27.495Z,5.15
2023-07-05T12:34:03.147Z,5.21
2023-07-05T12:35:44.388Z,4.97
2023-07-05T12:37:08.654Z,4.94
2023-07-05T12:38:44.047Z,4.81
2023-07-05T12:40:15.239Z,4.87
2023-07-05T12:41:41.996Z,4.87
2023-07-05T12:43:27.787Z,4.63
2023-07-05T12:45:17.081Z,4.60
2023-07-05T12:46:46.907Z,4.99
2023-07-05T12:48:22.880Z,4.87
2023-07-05T12:49:46.964Z,4.61
2023-07-05T12:51:11.726Z,4.34
2023-07-05T12:52:56.501Z,4.93
2023-07-05T12:54:41.590Z,4.81
2023-07-05T12:56:05.763Z,4.64
2023-07-05T12:57:48.748Z,4.57
2023-07-05T12:59:39.073Z,4.54
2023-07-05T13:01:20.120Z,4.42
2023-07-05T13:03:12.478Z,4.21
2023-07-05T13:04:48.648Z,4.59
2023-07-05T13:06:24.131Z,4.68
2023-07-05T13:07:57.761Z,4.46
2023-07-05T13:09:29.663Z,4.35
2023-07-05T13:11:15.646Z,4.53
2023-07-05T13:13:00.531Z,4.48
2023-07-05T13:14:22.069Z,4.14
2023-07-05T13:15:55.043Z,4.51
2023-07-05T13:17:40.134Z,4.38
2023-07-05T13:19:34.675Z,4.24
2023-07-05T13:21:11.104Z,4.18
2023-07-05T13:22:56.818Z,4.65
2023-07-05T13:24:51.692Z,4.67
2023-07-05T13:26:44.672Z,4.32
2023-07-05T13:28:31.286Z,4.05
2023-07-05T13:30:25.692Z,4.59
2023-07-05T13:32:13.710Z,4.23
2023-07-05T13:33:46.465Z,3.94
2023-07-05T13:37:40.765Z,4.35
2023-07-05T13:39:25.617Z,4.35
2023-07-05T13:41:00.813Z,4.20
2023-07-05T13:42:45.433Z,4.64
2023-07-05T13:44:38.717Z,4.16
2023-07-05T13:46:24.731Z,4.24
2023-07-05T13:48:05.283Z,4.16
2023-07-05T13:49:50.550Z,4.32
2023-07-05T13:51:40.702Z,4.00
2023-07-05T13:53:27.507Z,4.41
2023-07-05T13:55:12.244Z,4.08
2023-07-05T13:56:56.920Z,4.42
2023-07-05T13:58:41.837Z,4.20
2023-07-05T14:00:17.026Z,4.37
2023-07-05T14:01:50.641Z,4.33
2023-07-05T14:03:40.646Z,5.00
2023-07-05T14:05:31.327Z,4.63
2023-07-05T14:07:15.725Z,4.43
2023-07-05T14:09:00.716Z,4.24
2023-07-05T14:10:45.649Z,3.71
2023-07-05T14:12:30.385Z,4.34
2023-07-05T14:14:03.388Z,4.18
2023-07-05T14:15:36.874Z,4.18
2023-07-05T14:17:21.723Z,4.29
2023-07-05T14:19:03.106Z,4.27
2023-07-05T14:20:47.783Z,4.51
2023-07-05T14:22:36.459Z,3.88
2023-07-05T14:24:18.020Z,4.08
2023-07-05T14:26:02.528Z,4.55
2023-07-05T14:27:26.262Z,4.14
2023-07-05T14:29:14.148Z,4.02
2023-07-05T14:30:54.781Z,4.37
2023-07-05T14:32:49.759Z,4.31
2023-07-05T14:34:42.945Z,4.26
2023-07-05T14:36:36.712Z,4.29
2023-07-05T14:38:09.904Z,4.24
2023-07-05T14:39:54.570Z,4.26
2023-07-05T14:41:35.089Z,4.09
2023-07-05T14:43:19.947Z,4.41
2023-07-05T14:47:03.770Z,4.05
2023-07-05T14:48:48.380Z,4.63
2023-07-05T14:50:41.573Z,4.48
2023-07-05T14:52:35.794Z,4.47
2023-07-05T14:54:16.253Z,4.07
2023-07-05T14:56:02.964Z,4.51
2023-07-05T14:57:47.692Z,3.86
2023-07-05T14:59:41.062Z,4.01
2023-07-05T15:01:05.237Z,4.22
2023-07-05T15:02:42.684Z,4.24
2023-07-05T15:04:09.227Z,4.77
2023-07-05T15:05:54.132Z,4.37
2023-07-05T15:07:39.464Z,4.19
2023-07-05T15:09:29.425Z,4.54
2023-07-05T15:11:03.622Z,3.94
2023-07-05T15:12:48.377Z,4.40
2023-07-05T15:14:42.725Z,4.36
2023-07-05T15:16:15.674Z,4.62
2023-07-05T15:17:48.678Z,4.43
2023-07-05T15:19:24.553Z,3.33
2023-07-05T15:21:18.732Z,3.86
2023-07-05T15:22:47.790Z,3.81
2023-07-05T15:24:33.627Z,3.52
2023-07-05T15:26:07.039Z,2.70
2023-07-05T15:27:52.013Z,2.48
2023-07-05T15:29:34.733Z,2.85
2023-07-05T15:31:19.907Z,2.78
2023-07-05T15:33:05.104Z,2.75
2023-07-05T15:34:42.400Z,2.20
2023-07-05T15:36:35.226Z,2.52
2023-07-05T15:38:20.254Z,2.57
2023-07-05T15:40:05.402Z,2.71
2023-07-05T15:41:50.189Z,2.49
2023-07-05T15:43:34.928Z,2.66
2023-07-05T15:45:10.274Z,2.27
2023-07-05T15:46:50.669Z,2.79
2023-07-05T15:48:31.851Z,2.55
2023-07-05T15:50:25.732Z,2.56
2023-07-05T15:52:10.435Z,2.86
2023-07-05T15:53:54.948Z,2.53
2023-07-05T15:55:40.746Z,2.20
2023-07-05T15:57:30.725Z,2.33
2023-07-05T15:59:18.497Z,2.12
2023-07-05T16:01:12.004Z,1.83
2023-07-05T16:02:58.688Z,2.22
2023-07-05T16:04:38.983Z,1.93
2023-07-05T16:06:13.266Z,2.29
2023-07-05T16:07:55.544Z,2.42
2023-07-05T16:09:40.482Z,2.49
2023-07-05T16:11:27.360Z,2.73
2023-07-05T16:13:20.458Z,2.59
2023-07-05T16:15:01.188Z,3.00
2023-07-05T16:16:45.687Z,2.57
2023-07-05T16:18:30.772Z,2.72
2023-07-05T16:20:24.740Z,2.67
2023-07-05T16:22:10.515Z,2.45
2023-07-05T16:23:51.663Z,2.64
2023-07-05T16:25:29.233Z,2.72
2023-07-05T16:27:18.100Z,2.69
2023-07-05T16:28:51.925Z,2.49
2023-07-05T16:30:36.841Z,2.90
2023-07-05T16:32:10.190Z,2.88
2023-07-05T16:33:55.186Z,3.35
2023-07-05T16:35:49.746Z,3.23
2023-07-05T16:37:18.752Z,3.25
2023-07-05T16:39:14.167Z,3.48
2023-07-05T16:40:59.925Z,3.60
2023-07-05T16:42:44.650Z,3.62
2023-07-05T16:44:26.508Z,3.94
2023-07-05T16:45:59.998Z,3.92
2023-07-05T16:47:44.613Z,3.92
2023-07-05T16:49:29.849Z,4.05
2023-07-05T16:51:16.188Z,3.88
2023-07-05T16:53:01.018Z,4.06
2023-07-05T16:54:42.605Z,4.12
2023-07-05T16:56:28.773Z,4.43
2023-07-05T16:58:08.878Z,4.10
2023-07-05T16:59:49.883Z,3.76
2023-07-05T17:01:38.116Z,4.12
2023-07-05T17:03:23.543Z,3.65
2023-07-05T17:05:04.238Z,3.60
2023-07-05T17:06:37.771Z,3.78
2023-07-05T17:08:22.601Z,3.65
2023-07-05T17:10:03.320Z,3.63
2023-07-05T17:11:45.767Z,3.92
2023-07-05T17:13:19.096Z,3.68
2023-07-05T17:14:52.654Z,5.89
2023-07-05T17:16:28.675Z,5.57
2023-07-05T17:18:14.986Z,3.83
2023-07-05T17:20:01.908Z,4.09
2023-07-05T17:21:47.780Z,4.09
2023-07-05T17:23:32.407Z,4.59
2023-07-05T17:25:17.120Z,4.30
2023-07-05T17:27:01.785Z,4.39
2023-07-05T17:28:46.526Z,4.01
2023-07-05T17:30:27.019Z,4.07
2023-07-05T17:32:07.554Z,4.01
2023-07-05T17:33:38.324Z,4.03
2023-07-05T17:35:00.240Z,3.81
2023-07-05T17:36:46.167Z,3.77
2023-07-05T17:38:15.087Z,3.48
2023-07-05T17:39:36.871Z,4.32
2023-07-05T17:41:10.547Z,4.02
2023-07-05T17:42:45.931Z,3.91
2023-07-05T17:44:09.971Z,3.71
2023-07-05T17:45:43.042Z,4.00
2023-07-05T17:47:18.776Z,3.82
2023-07-05T17:49:03.543Z,4.04
2023-07-05T17:50:45.728Z,4.34
2023-07-05T17:52:21.200Z,4.10
2023-07-05T17:53:45.307Z,3.88
2023-07-05T17:55:06.976Z,3.68
2023-07-05T17:56:28.943Z,3.89
2023-07-05T17:58:05.121Z,4.16
2023-07-05T17:59:38.626Z,3.99
2023-07-05T18:01:11.783Z,3.81
2023-07-05T18:02:57.692Z,3.85
2023-07-05T18:04:42.924Z,3.92
2023-07-05T18:06:17.316Z,3.94
2023-07-05T18:07:59.659Z,3.65
2023-07-05T18:09:44.287Z,3.45
2023-07-05T18:11:25.207Z,4.01
2023-07-05T18:13:14.421Z,4.22
2023-07-05T18:14:36.837Z,3.59
2023-07-05T18:16:05.611Z,3.82
2023-07-05T18:17:46.781Z,3.81
2023-07-05T18:19:40.759Z,4.22
2023-07-05T18:21:29.935Z,4.08
2023-07-05T18:22:54.259Z,3.98
2023-07-05T18:24:42.144Z,4.01
2023-07-05T18:28:17.922Z,3.61
2023-07-05T18:30:10.871Z,3.86
2023-07-05T18:31:44.103Z,4.07
2023-07-05T18:33:28.225Z,3.50
2023-07-05T18:35:04.171Z,3.02
2023-07-05T18:36:40.997Z,3.48
2023-07-05T18:38:06.874Z,3.39
2023-07-05T18:39:41.694Z,3.29
2023-07-05T18:41:16.356Z,3.29
2023-07-05T18:42:51.885Z,3.22
2023-07-05T18:44:27.824Z,3.80
2023-07-05T18:46:03.694Z,3.74
2023-07-05T18:47:48.784Z,3.90
2023-07-05T18:49:23.208Z,4.75
2023-07-05T18:50:56.729Z,4.11
2023-07-05T18:52:30.207Z,4.43
2023-07-05T18:53:54.095Z,3.98
2023-07-05T18:55:25.477Z,4.01
2023-07-05T18:56:47.838Z,4.40
2023-07-05T18:58:23.049Z,3.76
2023-07-05T18:59:55.933Z,3.89
2023-07-05T19:01:36.510Z,3.46
2023-07-05T19:03:19.831Z,3.45
2023-07-05T19:05:13.787Z,3.79
2023-07-05T19:06:47.209Z,3.44
2023-07-05T19:08:40.776Z,3.23
2023-07-05T19:10:13.774Z,3.13
2023-07-05T19:11:49.374Z,3.23
2023-07-05T19:13:18.176Z,2.94
2023-07-05T19:14:49.399Z,2.84
2023-07-05T19:16:13.190Z,3.27
2023-07-05T19:17:49.459Z,2.91
2023-07-05T19:19:14.227Z,3.16
2023-07-05T19:20:46.900Z,2.89
2023-07-05T19:22:22.794Z,2.98
2023-07-05T19:23:57.912Z,3.05
2023-07-05T19:25:51.764Z,3.09
2023-07-05T19:27:36.633Z,2.77
2023-07-05T19:29:12.186Z,2.98
2023-07-05T19:31:00.033Z,2.91
2023-07-05T19:32:33.381Z,3.03
2023-07-05T19:34:06.828Z,3.58
2023-07-05T19:35:42.173Z,3.29
2023-07-05T19:37:17.814Z,3.31
2023-07-05T19:38:51.774Z,3.02
2023-07-05T19:40:27.199Z,2.84
2023-07-05T19:42:00.546Z,2.98
2023-07-05T19:43:33.404Z,3.23
2023-07-05T19:45:06.323Z,3.11
2023-07-05T19:46:41.864Z,2.98
2023-07-05T19:48:17.548Z,3.04
2023-07-05T19:49:46.576Z,3.34
2023-07-05T19:51:21.798Z,2.95
2023-07-05T19:52:43.627Z,3.01
2023-07-05T19:54:18.678Z,3.00
2023-07-05T19:55:53.307Z,3.11
2023-07-05T19:59:44.825Z,3.25
2023-07-05T20:01:29.730Z,3.30
2023-07-05T20:03:18.725Z,3.33
2023-07-05T20:04:52.474Z,2.96
2023-07-05T20:06:41.410Z,3.57
2023-07-05T20:08:25.042Z,3.31
2023-07-05T20:10:12.126Z,3.34
2023-07-05T20:11:49.621Z,3.84
2023-07-05T20:13:13.281Z,4.17
2023-07-05T20:14:48.325Z,3.40
2023-07-05T20:16:33.072Z,3.29
2023-07-05T20:18:00.368Z,3.54
2023-07-05T20:19:34.402Z,3.24
2023-07-05T20:21:17.837Z,3.07
2023-07-05T20:22:59.912Z,3.17
2023-07-05T20:24:44.526Z,3.96
2023-07-05T20:26:26.806Z,3.34
2023-07-05T20:27:59.801Z,3.40
2023-07-05T20:29:45.892Z,3.27
2023-07-05T20:31:20.923Z,3.72
2023-07-05T20:33:05.781Z,3.19
2023-07-05T20:34:50.642Z,3.38
2023-07-05T20:36:38.714Z,3.43
2023-07-05T20:38:19.290Z,3.49
2023-07-05T20:40:03.820Z,3.35
2023-07-05T20:41:35.170Z,3.37
2023-07-05T20:43:28.245Z,2.91
2023-07-05T20:44:52.422Z,3.17
2023-07-05T20:46:38.029Z,3.50
2023-07-05T20:48:18.335Z,3.31
2023-07-05T20:49:51.518Z,3.48
2023-07-05T20:51:27.082Z,3.32
2023-07-05T20:53:12.064Z,3.51
2023-07-05T20:54:47.657Z,3.74
2023-07-05T20:56:28.279Z,3.65
2023-07-05T20:57:59.546Z,3.54
2023-07-05T20:59:41.355Z,3.43
2023-07-05T21:01:30.833Z,3.75
2023-07-05T21:03:24.649Z,3.70
2023-07-05T21:04:46.671Z,3.82
2023-07-05T21:06:13.010Z,3.62
2023-07-05T21:07:47.147Z,3.93
2023-07-05T21:09:08.990Z,3.85
2023-07-05T21:10:53.552Z,4.00
2023-07-05T21:12:27.149Z,3.48
2023-07-05T21:14:00.855Z,3.48
2023-07-05T21:15:45.659Z,4.00
2023-07-05T21:17:21.230Z,3.59
2023-07-05T21:18:54.372Z,3.82
2023-07-05T21:20:38.820Z,4.13
2023-07-05T21:22:32.860Z,3.83
2023-07-05T21:24:17.804Z,3.94
2023-07-05T21:25:51.090Z,3.78
2023-07-05T21:27:12.574Z,3.74
2023-07-05T21:28:48.081Z,3.93
2023-07-05T21:30:12.617Z,4.16
2023-07-05T21:31:43.756Z,4.03
2023-07-05T21:33:26.807Z,4.01
2023-07-05T21:35:07.547Z,4.15
2023-07-05T21:36:53.664Z,3.88
2023-07-05T21:38:38.712Z,4.60
2023-07-05T21:40:12.229Z,4.55
2023-07-05T21:42:06.787Z,4.12
2023-07-05T21:43:47.278Z,3.96
2023-07-05T21:45:22.831Z,4.09
2023-07-05T21:46:58.002Z,4.54
2023-07-05T21:48:31.665Z,4.50
2023-07-05T21:50:16.508Z,4.37
2023-07-05T21:52:01.094Z,4.50
2023-07-05T21:53:22.893Z,4.02
2023-07-05T21:55:16.824Z,4.80
2023-07-05T21:56:49.771Z,4.53
2023-07-05T21:58:26.937Z,4.28
2023-07-05T22:00:20.837Z,4.44
2023-07-05T22:01:44.821Z,4.37
2023-07-05T22:03:13.680Z,4.72
2023-07-05T22:04:45.060Z,4.45
2023-07-05T22:06:18.161Z,4.25
2023-07-05T22:07:51.441Z,4.54
2023-07-05T22:09:41.192Z,4.46
2023-07-05T22:11:05.522Z,4.82
2023-07-05T22:12:52.016Z,3.93
2023-07-05T22:14:27.264Z,4.49
2023-07-05T22:16:08.044Z,4.82
2023-07-05T22:17:43.817Z,4.36
2023-07-05T22:19:07.711Z,4.68
2023-07-05T22:20:52.244Z,4.50
2023-07-05T22:22:36.939Z,4.07
2023-07-05T22:24:12.572Z,4.27
2023-07-05T22:25:58.272Z,4.21
2023-07-05T22:27:39.152Z,4.36
2023-07-05T22:29:12.348Z,5.06
2023-07-05T22:30:52.868Z,4.63
2023-07-05T22:32:45.933Z,4.76
2023-07-05T22:34:09.731Z,4.85
2023-07-05T22:35:42.701Z,4.67
2023-07-05T22:37:35.125Z,4.57
2023-07-05T22:39:08.209Z,4.32
2023-07-05T22:40:32.046Z,4.43
2023-07-05T22:42:07.715Z,5.02
2023-07-05T22:43:39.311Z,4.85
2023-07-05T22:45:28.349Z,4.77
2023-07-05T22:47:01.726Z,5.00
2023-07-05T22:48:35.282Z,5.10
2023-07-05T22:49:59.220Z,4.81
2023-07-05T22:51:23.059Z,4.87
2023-07-05T22:53:11.846Z,4.65
2023-07-05T22:54:47.196Z,4.57
2023-07-05T22:56:20.828Z,4.88
2023-07-05T22:57:56.125Z,4.59
2023-07-05T22:59:27.192Z,4.53
2023-07-05T23:00:51.333Z,4.78
2023-07-05T23:02:27.040Z,4.28
2023-07-05T23:03:55.984Z,4.41
2023-07-05T23:05:20.474Z,4.38
2023-07-05T23:07:05.122Z,4.87
2023-07-05T23:08:49.576Z,5.23
2023-07-05T23:10:13.147Z,4.59
2023-07-05T23:11:37.371Z,4.78
2023-07-05T23:13:10.315Z,4.78
2023-07-05T23:14:42.961Z,4.65
2023-07-05T23:16:16.966Z,4.69
2023-07-05T23:17:39.259Z,5.07
2023-07-05T23:19:13.025Z,4.89
2023-07-05T23:20:46.110Z,4.92
2023-07-05T23:22:12.367Z,4.70